Time;durP1;ratioP1;P1;durP2;ratioP2;P2;SDS_P1;SDS_P2;PMS_P1;PMS_P2;Temp;Humidity;BMP_temperature;BMP_pressure;BME280_temperature;BME280_humidity;BME280_pressure;Samples;Min_cycle;Max_cycle;Signal;HPM_P1;HPM_P2
2024/01/27 00:00:10;;;;;;;22.95;3.47;;;4.40;99.90;;;;;;5062051;28;20350;-85
2024/01/27 00:02:36;;;;;;;19.23;3.50;;;4.30;99.90;;;;;;5059764;28;20056;-85
2024/01/27 00:05:02;;;;;;;17.23;2.63;;;4.30;99.90;;;;;;5063437;28;20047;-85
2024/01/27 00:07:28;;;;;;;18.58;3.60;;;4.30;99.90;;;;;;5050523;28;20399;-84
2024/01/27 00:09:59;;;;;;;20.10;3.35;;;4.20;99.90;;;;;;5062540;28;20095;-85
2024/01/27 00:12:24;;;;;;;29.50;4.47;;;5.30;99.90;;;;;;5060198;28;20059;-85
2024/01/27 00:14:50;;;;;;;16.25;3.28;;;4.20;99.90;;;;;;5052844;28;20052;-85
2024/01/27 00:17:16;;;;;;;20.45;3.38;;;4.20;99.90;;;;;;5064263;28;20102;-85
2024/01/27 00:19:42;;;;;;;15.32;3.47;;;3.20;99.90;;;;;;5069111;28;20131;-85
2024/01/27 00:22:08;;;;;;;18.30;3.50;;;4.10;99.90;;;;;;5061108;28;20041;-85
2024/01/27 00:24:36;;;;;;;18.48;3.10;;;4.60;99.90;;;;;;5067631;28;20576;-86
2024/01/27 00:27:02;;;;;;;19.10;3.95;;;4.10;99.90;;;;;;5052178;28;20048;-85
2024/01/27 00:29:28;;;;;;;17.35;2.92;;;4.10;99.90;;;;;;5067541;28;20048;-85
2024/01/27 00:31:54;;;;;;;21.45;3.00;;;4.10;99.90;;;;;;5069896;28;20067;-85
2024/01/27 00:34:20;;;;;;;22.40;3.28;;;4.10;99.90;;;;;;5059258;28;20394;-86
2024/01/27 00:36:48;;;;;;;23.98;3.80;;;4.10;99.90;;;;;;5069944;28;20045;-85
2024/01/27 00:39:20;;;;;;;23.25;3.70;;;4.60;99.90;;;;;;5068748;28;20071;-85
2024/01/27 00:41:46;;;;;;;16.83;2.47;;;4.00;99.90;;;;;;5069568;28;20051;-85
2024/01/27 00:44:11;;;;;;;16.13;3.13;;;4.00;99.90;;;;;;5070095;28;20040;-85
2024/01/27 00:46:38;;;;;;;19.73;3.05;;;4.00;99.90;;;;;;5069336;28;20051;-85
2024/01/27 00:49:05;;;;;;;22.23;3.08;;;4.80;99.90;;;;;;5040015;28;20462;-84
2024/01/27 00:51:32;;;;;;;17.13;3.15;;;5.10;99.90;;;;;;5061174;28;20056;-85
2024/01/27 00:53:57;;;;;;;17.27;3.05;;;4.00;99.90;;;;;;5065003;28;20081;-85
2024/01/27 00:56:23;;;;;;;16.75;3.33;;;4.00;99.90;;;;;;5056202;28;20040;-86
2024/01/27 00:58:49;;;;;;;28.13;3.47;;;4.70;99.90;;;;;;5068017;28;20041;-86
2024/01/27 01:01:14;;;;;;;21.63;3.88;;;5.10;99.90;;;;;;5061630;28;20123;-85
2024/01/27 01:03:40;;;;;;;17.90;3.55;;;3.90;99.90;;;;;;5045559;28;20088;-85
2024/01/27 01:06:06;;;;;;;19.88;2.72;;;3.90;99.90;;;;;;5065141;28;20471;-86
2024/01/27 01:08:32;;;;;;;16.65;3.53;;;4.80;99.90;;;;;;5054883;28;20041;-86
2024/01/27 01:10:59;;;;;;;22.10;3.63;;;3.90;99.90;;;;;;5066238;28;20123;-85
2024/01/27 01:13:25;;;;;;;19.40;3.42;;;3.80;99.90;;;;;;5063067;28;20170;-86
2024/01/27 01:15:51;;;;;;;18.58;2.92;;;3.90;99.90;;;;;;5067714;28;20135;-85
2024/01/27 01:18:19;;;;;;;25.00;3.22;;;4.30;99.90;;;;;;5065668;28;20041;-85
2024/01/27 01:20:46;;;;;;;16.35;2.70;;;4.00;99.90;;;;;;5053558;28;20073;-85
2024/01/27 01:23:12;;;;;;;17.50;2.95;;;3.80;99.90;;;;;;5059939;28;20045;-84
2024/01/27 01:25:37;;;;;;;19.02;3.55;;;3.80;99.90;;;;;;5068583;28;20049;-86
2024/01/27 01:28:03;;;;;;;23.10;3.20;;;3.80;99.90;;;;;;5067826;28;20394;-85
2024/01/27 01:30:29;;;;;;;21.60;2.88;;;3.80;99.90;;;;;;5069371;28;20036;-86
2024/01/27 01:32:55;;;;;;;15.45;2.92;;;3.80;99.90;;;;;;5042568;28;20129;-85
2024/01/27 01:35:20;;;;;;;15.48;3.25;;;3.80;99.90;;;;;;5052894;28;20048;-85
2024/01/27 01:37:50;;;;;;;16.75;3.80;;;3.80;99.90;;;;;;5063072;28;20048;-85
2024/01/27 01:40:15;;;;;;;16.42;2.50;;;3.80;99.90;;;;;;5068941;28;20053;-85
2024/01/27 01:42:41;;;;;;;18.65;3.00;;;3.80;99.90;;;;;;5059473;28;20048;-86
2024/01/27 01:45:11;;;;;;;19.35;3.38;;;3.80;99.90;;;;;;5060953;28;20398;-86
2024/01/27 01:47:40;;;;;;;17.35;2.88;;;3.80;99.90;;;;;;5051732;28;20453;-85
2024/01/27 01:50:06;;;;;;;15.32;3.60;;;3.80;99.90;;;;;;5066118;28;20056;-86
2024/01/27 01:52:32;;;;;;;18.42;2.80;;;3.80;99.90;;;;;;5063026;28;20048;-86
2024/01/27 01:54:58;;;;;;;21.90;2.83;;;3.80;99.90;;;;;;5069339;28;20078;-85
2024/01/27 01:57:24;;;;;;;13.18;3.00;;;3.70;99.90;;;;;;5058464;28;20047;-86
2024/01/27 01:59:52;;;;;;;15.70;3.15;;;3.70;99.90;;;;;;5062053;28;20045;-85
2024/01/27 02:02:17;;;;;;;19.88;3.20;;;3.70;99.90;;;;;;5051069;28;20044;-85
2024/01/27 02:04:45;;;;;;;21.17;2.70;;;4.50;99.90;;;;;;5068940;28;20383;-85
2024/01/27 02:07:11;;;;;;;10.63;2.10;;;3.70;99.90;;;;;;5069282;28;20048;-85
2024/01/27 02:09:37;;;;;;;23.50;2.78;;;3.70;99.90;;;;;;5068255;28;20052;-85
2024/01/27 02:12:03;;;;;;;23.52;5.05;;;4.80;99.90;;;;;;5050030;28;20102;-86
2024/01/27 02:14:29;;;;;;;16.65;2.97;;;3.60;99.90;;;;;;5052196;28;20041;-85
2024/01/27 02:16:54;;;;;;;15.25;2.50;;;3.60;99.90;;;;;;5067918;28;20128;-86
2024/01/27 02:19:21;;;;;;;20.75;2.63;;;3.60;99.90;;;;;;5065544;28;20135;-85
2024/01/27 02:21:47;;;;;;;23.13;3.28;;;3.60;99.90;;;;;;5070454;28;20044;-85
2024/01/27 02:24:13;;;;;;;14.73;2.50;;;3.60;99.90;;;;;;5053125;28;20050;-85
2024/01/27 02:26:38;;;;;;;20.50;3.75;;;4.20;99.90;;;;;;5072324;28;20041;-85
2024/01/27 02:29:04;;;;;;;17.40;2.90;;;3.50;99.90;;;;;;5050076;28;20051;-86
2024/01/27 02:31:30;;;;;;;15.93;2.70;;;3.50;99.90;;;;;;5072788;28;20078;-85
2024/01/27 02:33:55;;;;;;;13.95;3.92;;;3.50;99.90;;;;;;5045518;28;20064;-86
2024/01/27 02:36:21;;;;;;;20.70;3.08;;;3.50;99.90;;;;;;5051838;28;20044;-85
2024/01/27 02:38:47;;;;;;;18.95;3.00;;;3.50;99.90;;;;;;5064779;28;20044;-85
2024/01/27 02:41:12;;;;;;;19.38;2.50;;;3.50;99.90;;;;;;5052156;28;20407;-85
2024/01/27 02:43:38;;;;;;;18.38;3.28;;;3.50;99.90;;;;;;5058794;28;20449;-85
2024/01/27 02:46:11;;;;;;;14.15;2.80;;;3.50;99.90;;;;;;5058411;28;20033;-85
2024/01/27 02:48:40;;;;;;;9.55;2.40;;;3.50;99.90;;;;;;5071194;28;20040;-85
2024/01/27 02:51:05;;;;;;;18.17;2.65;;;4.30;99.90;;;;;;5070915;28;20557;-85
2024/01/27 02:53:31;;;;;;;17.27;2.92;;;3.70;99.90;;;;;;5065916;28;20045;-85
2024/01/27 02:55:57;;;;;;;19.13;3.35;;;3.20;99.90;;;;;;5064492;28;20040;-85
2024/01/27 02:58:23;;;;;;;19.75;2.78;;;3.50;99.90;;;;;;5061145;28;20063;-85
2024/01/27 03:00:49;;;;;;;16.58;3.30;;;3.50;99.90;;;;;;5071678;28;20592;-86
2024/01/27 03:03:15;;;;;;;18.55;3.30;;;3.70;99.90;;;;;;5071513;28;20474;-84
2024/01/27 03:05:41;;;;;;;20.35;3.30;;;3.50;99.90;;;;;;5072101;28;20131;-84
2024/01/27 03:08:07;;;;;;;24.40;3.13;;;3.50;99.90;;;;;;5070487;28;20036;-85
2024/01/27 03:10:32;;;;;;;19.98;2.90;;;4.50;99.90;;;;;;5061778;28;20099;-85
2024/01/27 03:12:58;;;;;;;13.05;2.95;;;3.50;99.90;;;;;;5060464;28;20041;-84
2024/01/27 03:15:24;;;;;;;9.95;1.85;;;3.50;99.90;;;;;;5057518;28;20437;-85
2024/01/27 03:17:49;;;;;;;16.80;3.08;;;3.50;99.90;;;;;;5043730;28;20494;-85
2024/01/27 03:20:15;;;;;;;15.00;3.70;;;3.50;99.90;;;;;;5066211;28;20130;-85
2024/01/27 03:22:41;;;;;;;20.70;3.47;;;3.50;99.90;;;;;;5052694;28;20057;-86
2024/01/27 03:25:08;;;;;;;17.33;2.67;;;3.50;99.90;;;;;;5058989;28;20400;-85
2024/01/27 03:27:35;;;;;;;16.70;3.08;;;3.50;99.90;;;;;;5067527;28;20041;-85
2024/01/27 03:30:05;;;;;;;19.00;2.88;;;3.50;99.90;;;;;;5068262;28;20048;-85
2024/01/27 03:32:33;;;;;;;16.15;3.72;;;3.50;99.90;;;;;;5070743;28;20040;-85
2024/01/27 03:35:00;;;;;;;10.43;2.25;;;3.40;99.90;;;;;;5067008;28;20496;-86
2024/01/27 03:37:26;;;;;;;14.27;2.38;;;3.40;99.90;;;;;;5054878;28;20060;-87
2024/01/27 03:39:52;;;;;;;17.23;3.13;;;3.40;99.90;;;;;;5061123;28;20513;-86
2024/01/27 03:42:17;;;;;;;14.05;1.92;;;3.40;99.90;;;;;;5055347;28;20045;-86
2024/01/27 03:44:46;;;;;;;10.82;2.30;;;3.40;99.90;;;;;;5059222;28;20052;-86
2024/01/27 03:47:11;;;;;;;21.58;2.67;;;4.40;99.90;;;;;;5069444;28;20040;-85
2024/01/27 03:49:37;;;;;;;17.08;2.83;;;3.30;99.90;;;;;;5062975;28;20045;-86
2024/01/27 03:52:04;;;;;;;15.90;2.78;;;3.30;99.90;;;;;;5067949;28;20051;-86
2024/01/27 03:54:31;;;;;;;20.15;2.45;;;3.30;99.90;;;;;;5070101;28;20086;-86
2024/01/27 03:56:57;;;;;;;17.50;2.70;;;3.30;99.90;;;;;;5066003;28;20502;-86
2024/01/27 03:59:22;;;;;;;18.83;3.45;;;4.20;99.90;;;;;;5061823;28;20048;-83
2024/01/27 04:01:48;;;;;;;22.55;2.33;;;3.30;99.90;;;;;;5061025;28;20045;-84
2024/01/27 04:04:14;;;;;;;14.75;3.13;;;3.30;99.90;;;;;;5057844;28;20036;-86
2024/01/27 04:06:40;;;;;;;14.93;2.58;;;4.10;99.90;;;;;;5053187;28;20150;-84
2024/01/27 04:09:09;;;;;;;14.65;2.97;;;3.30;99.90;;;;;;5063277;28;20135;-87
2024/01/27 04:11:36;;;;;;;21.27;3.10;;;3.30;99.90;;;;;;5037065;28;20041;-83
2024/01/27 04:14:03;;;;;;;13.43;2.35;;;3.40;99.90;;;;;;5056048;28;20051;-85
2024/01/27 04:16:28;;;;;;;14.80;3.38;;;3.30;99.90;;;;;;5065320;28;20123;-85
2024/01/27 04:18:54;;;;;;;15.25;3.17;;;3.30;99.90;;;;;;5055226;28;20144;-85
2024/01/27 04:21:20;;;;;;;15.48;2.15;;;3.30;99.90;;;;;;5057552;28;20080;-85
2024/01/27 04:23:45;;;;;;;16.15;3.15;;;4.10;99.90;;;;;;5056079;28;20118;-85
2024/01/27 04:26:11;;;;;;;16.27;2.83;;;3.40;99.90;;;;;;5069608;28;20596;-85
2024/01/27 04:28:38;;;;;;;13.55;2.50;;;3.30;99.90;;;;;;5050332;28;20401;-85
2024/01/27 04:31:04;;;;;;;19.83;2.80;;;3.30;99.90;;;;;;5033866;28;20036;-85
2024/01/27 04:33:30;;;;;;;14.93;2.78;;;3.40;99.90;;;;;;5066555;28;20055;-85
2024/01/27 04:35:56;;;;;;;20.23;2.97;;;3.30;99.90;;;;;;5051157;28;20048;-85
2024/01/27 04:38:21;;;;;;;15.70;2.42;;;3.40;99.90;;;;;;5051040;28;20048;-85
2024/01/27 04:40:49;;;;;;;21.30;2.97;;;3.40;99.90;;;;;;5065718;28;20045;-85
2024/01/27 04:43:20;;;;;;;15.45;3.00;;;3.40;99.90;;;;;;5068117;28;20050;-84
2024/01/27 04:45:45;;;;;;;15.52;2.63;;;4.30;99.90;;;;;;5047056;28;20314;-85
2024/01/27 04:48:11;;;;;;;23.33;3.58;;;3.40;99.90;;;;;;5051732;28;20045;-84
2024/01/27 04:50:37;;;;;;;18.25;2.90;;;3.40;99.90;;;;;;5069943;28;20113;-85
2024/01/27 04:53:03;;;;;;;14.73;2.70;;;3.40;99.90;;;;;;5042435;28;20083;-85
2024/01/27 04:55:28;;;;;;;27.15;3.20;;;3.40;99.90;;;;;;5066713;28;20433;-85
2024/01/27 04:57:54;;;;;;;17.30;2.35;;;3.30;99.90;;;;;;5064676;28;20086;-85
2024/01/27 05:00:20;;;;;;;10.90;3.17;;;3.30;99.90;;;;;;5069061;28;20094;-84
2024/01/27 05:02:46;;;;;;;19.08;2.47;;;3.40;99.90;;;;;;5063097;28;20044;-84
2024/01/27 05:05:12;;;;;;;17.02;2.95;;;3.30;99.90;;;;;;5047163;28;20049;-84
2024/01/27 05:07:38;;;;;;;10.60;2.30;;;3.30;99.90;;;;;;5054213;28;20076;-84
2024/01/27 05:10:04;;;;;;;18.90;2.38;;;3.30;99.90;;;;;;5067143;28;20048;-85
2024/01/27 05:12:30;;;;;;;13.30;3.10;;;3.30;99.90;;;;;;5068022;28;20109;-84
2024/01/27 05:14:56;;;;;;;12.80;2.20;;;3.30;99.90;;;;;;5064754;28;20440;-85
2024/01/27 05:17:21;;;;;;;21.00;2.70;;;3.30;99.90;;;;;;5065493;28;20465;-85
2024/01/27 05:19:47;;;;;;;18.48;2.42;;;3.90;99.90;;;;;;5055544;28;20045;-85
2024/01/27 05:22:13;;;;;;;23.50;4.10;;;3.30;99.90;;;;;;5067643;28;20048;-85
2024/01/27 05:24:38;;;;;;;18.48;2.30;;;3.30;99.90;;;;;;5065022;28;20075;-85
2024/01/27 05:27:04;;;;;;;17.73;2.92;;;4.10;99.90;;;;;;5069413;28;20768;-85
2024/01/27 05:29:30;;;;;;;9.57;2.22;;;3.20;99.90;;;;;;5062339;28;20477;-84
2024/01/27 05:31:55;;;;;;;15.40;2.38;;;3.50;99.90;;;;;;5060278;28;20049;-85
2024/01/27 05:34:21;;;;;;;13.18;2.83;;;3.20;99.90;;;;;;5063200;28;20534;-85
2024/01/27 05:36:47;;;;;;;24.63;2.60;;;3.20;99.90;;;;;;5069775;28;20048;-85
2024/01/27 05:39:14;;;;;;;16.63;2.47;;;3.30;99.90;;;;;;5063034;28;20059;-85
2024/01/27 05:41:39;;;;;;;15.95;3.28;;;4.00;99.90;;;;;;5052382;28;20044;-84
2024/01/27 05:44:05;;;;;;;28.15;2.90;;;3.20;99.90;;;;;;5071926;28;20305;-85
2024/01/27 05:46:31;;;;;;;17.33;2.95;;;3.20;99.90;;;;;;5064373;28;20052;-86
2024/01/27 05:49:01;;;;;;;15.35;2.38;;;3.20;99.90;;;;;;5061852;28;20085;-85
2024/01/27 05:51:27;;;;;;;16.83;2.95;;;3.20;99.90;;;;;;5063116;28;20044;-84
2024/01/27 05:53:53;;;;;;;26.00;3.45;;;3.20;99.90;;;;;;5069430;28;20044;-85
2024/01/27 05:56:21;;;;;;;10.00;2.03;;;3.50;99.90;;;;;;5049526;28;21551;-85
2024/01/27 05:58:47;;;;;;;13.35;1.77;;;3.20;99.90;;;;;;5066989;28;20483;-85
2024/01/27 06:01:13;;;;;;;11.48;2.25;;;3.20;99.90;;;;;;5064217;28;20115;-85
2024/01/27 06:03:42;;;;;;;21.90;3.22;;;3.20;99.90;;;;;;5061994;28;20170;-86
2024/01/27 06:06:08;;;;;;;13.15;2.17;;;3.20;99.90;;;;;;5065207;28;20112;-85
2024/01/27 06:08:33;;;;;;;17.55;2.58;;;3.80;99.90;;;;;;5056882;28;20119;-85
2024/01/27 06:10:59;;;;;;;14.90;4.35;;;3.20;99.90;;;;;;5070662;28;20044;-85
2024/01/27 06:13:25;;;;;;;19.08;3.10;;;3.20;99.90;;;;;;5069232;28;20424;-85
2024/01/27 06:15:50;;;;;;;14.02;2.55;;;3.10;99.90;;;;;;5073687;28;20044;-84
2024/01/27 06:18:16;;;;;;;16.90;3.10;;;3.10;99.90;;;;;;5065284;28;20063;-86
2024/01/27 06:20:42;;;;;;;12.82;2.85;;;3.10;99.90;;;;;;5069795;28;20080;-86
2024/01/27 06:23:08;;;;;;;18.02;3.00;;;3.10;99.90;;;;;;5064475;28;20046;-86
2024/01/27 06:25:34;;;;;;;13.68;2.28;;;3.10;99.90;;;;;;5065232;28;20053;-85
2024/01/27 06:28:00;;;;;;;15.05;2.13;;;3.10;99.90;;;;;;5064320;28;20492;-85
2024/01/27 06:30:26;;;;;;;16.65;2.85;;;3.10;99.90;;;;;;5061062;28;20053;-85
2024/01/27 06:32:51;;;;;;;22.20;2.58;;;3.50;99.90;;;;;;5068750;28;20177;-86
2024/01/27 06:35:17;;;;;;;16.33;2.38;;;3.50;99.90;;;;;;5064857;28;20044;-86
2024/01/27 06:37:43;;;;;;;18.20;2.95;;;3.00;99.90;;;;;;5067270;28;20036;-85
2024/01/27 06:40:09;;;;;;;21.30;3.80;;;3.00;99.90;;;;;;5064566;28;20044;-85
2024/01/27 06:42:35;;;;;;;16.55;3.17;;;3.00;99.90;;;;;;5065600;28;20079;-85
2024/01/27 06:45:01;;;;;;;18.00;3.08;;;3.00;99.90;;;;;;5069565;28;20075;-85
2024/01/27 06:47:26;;;;;;;22.67;4.25;;;3.00;99.90;;;;;;5061654;28;20086;-86
2024/01/27 06:49:52;;;;;;;17.98;3.25;;;3.00;99.90;;;;;;5072526;28;20470;-86
2024/01/27 06:52:18;;;;;;;14.75;2.50;;;3.00;99.90;;;;;;5059076;28;20441;-86
2024/01/27 06:54:44;;;;;;;22.50;3.80;;;3.00;99.90;;;;;;5070690;28;20075;-85
2024/01/27 06:57:23;;;;;;;19.60;3.10;;;3.00;99.90;;;;;;5071172;28;20041;-86
2024/01/27 06:59:53;;;;;;;12.18;2.85;;;2.90;99.90;;;;;;5066702;28;20040;-86
2024/01/27 07:02:28;;;;;;;17.13;3.03;;;3.00;99.90;;;;;;5046526;28;20462;-85
2024/01/27 07:04:55;;;;;;;17.45;2.95;;;3.10;99.90;;;;;;5069016;28;20123;-84
2024/01/27 07:07:25;;;;;;;17.73;3.92;;;2.90;99.90;;;;;;5063630;28;20048;-86
2024/01/27 07:09:51;;;;;;;15.77;3.10;;;2.90;99.90;;;;;;5073349;28;20052;-86
2024/01/27 07:12:17;;;;;;;15.90;2.60;;;2.90;99.90;;;;;;5062586;28;20107;-85
2024/01/27 07:14:43;;;;;;;12.75;2.22;;;2.90;99.90;;;;;;5069754;28;20037;-89
2024/01/27 07:17:08;;;;;;;18.55;3.20;;;3.00;99.90;;;;;;5047278;28;20406;-83
2024/01/27 07:19:34;;;;;;;18.65;4.85;;;2.90;99.90;;;;;;5062872;28;20075;-85
2024/01/27 07:21:59;;;;;;;21.75;2.92;;;2.90;99.90;;;;;;5071955;28;20052;-84
2024/01/27 07:24:26;;;;;;;23.48;3.95;;;2.90;99.90;;;;;;5057847;28;20650;-83
2024/01/27 07:26:51;;;;;;;23.27;4.45;;;2.90;99.90;;;;;;5065603;28;20045;-84
2024/01/27 07:29:17;;;;;;;13.93;3.55;;;2.90;99.90;;;;;;5073880;28;20036;-83
2024/01/27 07:31:43;;;;;;;16.75;2.88;;;2.90;99.90;;;;;;5069762;28;20482;-84
2024/01/27 07:34:08;;;;;;;14.10;3.00;;;3.10;99.90;;;;;;5062814;28;20127;-84
2024/01/27 07:36:34;;;;;;;21.58;4.82;;;2.90;99.90;;;;;;5069823;28;20055;-84
2024/01/27 07:39:00;;;;;;;16.58;3.67;;;2.90;99.90;;;;;;5069075;28;20040;-85
2024/01/27 07:41:25;;;;;;;13.40;4.30;;;2.90;99.90;;;;;;5061078;28;20067;-83
2024/01/27 07:43:51;;;;;;;16.08;3.30;;;2.90;99.90;;;;;;5071151;28;20103;-83
2024/01/27 07:46:21;;;;;;;30.35;4.57;;;2.90;99.90;;;;;;5068937;28;20068;-81
2024/01/27 07:48:47;;;;;;;23.25;4.68;;;2.90;99.90;;;;;;5067236;28;20044;-82
2024/01/27 07:51:13;;;;;;;17.38;4.45;;;2.90;99.90;;;;;;5065176;28;20495;-81
2024/01/27 07:53:39;;;;;;;20.80;4.85;;;2.90;99.90;;;;;;5066278;28;20044;-81
2024/01/27 07:56:07;;;;;;;19.17;4.78;;;2.90;99.90;;;;;;5070269;28;20051;-81
2024/01/27 07:58:32;;;;;;;27.60;5.28;;;2.90;99.90;;;;;;5057564;28;20045;-82
2024/01/27 08:00:58;;;;;;;31.95;5.43;;;2.90;99.90;;;;;;5063725;28;20047;-82
2024/01/27 08:03:24;;;;;;;25.98;5.80;;;2.90;99.90;;;;;;5059829;28;20103;-84
2024/01/27 08:05:50;;;;;;;24.77;5.60;;;2.90;99.90;;;;;;5061650;28;20092;-80
2024/01/27 08:08:15;;;;;;;26.17;7.75;;;2.90;99.90;;;;;;5061622;28;20092;-84
2024/01/27 08:10:41;;;;;;;18.35;5.63;;;2.90;99.90;;;;;;5068250;28;20057;-83
2024/01/27 08:13:07;;;;;;;24.65;5.53;;;2.90;99.90;;;;;;5069078;28;20498;-81
2024/01/27 08:15:35;;;;;;;18.38;5.78;;;2.90;99.90;;;;;;5067088;28;20044;-82
2024/01/27 08:18:01;;;;;;;18.20;5.15;;;3.30;99.90;;;;;;5069396;28;20413;-81
2024/01/27 08:20:27;;;;;;;26.67;6.72;;;3.00;99.90;;;;;;5061803;28;20048;-81
2024/01/27 08:22:53;;;;;;;17.10;6.00;;;3.00;99.90;;;;;;5064849;28;20040;-83
2024/01/27 08:25:19;;;;;;;26.42;7.10;;;3.00;99.90;;;;;;5066228;28;20044;-82
2024/01/27 08:27:45;;;;;;;23.20;5.90;;;3.00;99.90;;;;;;5064572;28;20080;-83
2024/01/27 08:30:11;;;;;;;19.42;5.95;;;3.10;99.90;;;;;;5061969;28;20048;-80
2024/01/27 08:32:37;;;;;;;23.40;6.65;;;3.10;99.90;;;;;;5064825;28;20071;-82
2024/01/27 08:35:02;;;;;;;28.10;7.30;;;3.10;99.90;;;;;;5069522;28;20487;-83
2024/01/27 08:37:28;;;;;;;28.23;8.90;;;3.10;99.90;;;;;;5049040;28;20508;-85
2024/01/27 08:39:54;;;;;;;25.00;6.97;;;3.10;99.90;;;;;;5068011;28;20129;-82
2024/01/27 08:42:22;;;;;;;21.48;7.82;;;3.20;99.90;;;;;;5056380;28;20056;-83
2024/01/27 08:44:48;;;;;;;26.48;7.80;;;3.20;99.90;;;;;;5063818;28;20115;-83
2024/01/27 08:47:14;;;;;;;21.33;7.13;;;3.60;99.90;;;;;;5046298;28;20182;-83
2024/01/27 08:49:40;;;;;;;19.98;6.57;;;3.30;99.90;;;;;;5054788;28;20049;-82
2024/01/27 08:52:07;;;;;;;18.35;7.30;;;3.90;99.90;;;;;;5055567;28;20123;-80
2024/01/27 08:54:32;;;;;;;18.65;7.38;;;3.30;99.90;;;;;;5056336;28;20182;-79
2024/01/27 08:56:58;;;;;;;27.60;8.40;;;3.30;99.90;;;;;;5054681;28;20052;-81
2024/01/27 08:59:24;;;;;;;28.02;7.63;;;3.40;99.90;;;;;;5055092;28;20040;-78
2024/01/27 09:01:49;;;;;;;19.35;8.25;;;3.40;99.90;;;;;;5065991;28;20087;-80
2024/01/27 09:04:17;;;;;;;18.65;8.35;;;3.40;99.90;;;;;;5071280;28;20051;-83
2024/01/27 09:06:43;;;;;;;28.23;7.97;;;3.40;99.90;;;;;;5065570;28;20067;-81
2024/01/27 09:09:08;;;;;;;21.88;8.13;;;3.50;99.90;;;;;;5070440;28;20406;-79
2024/01/27 09:11:34;;;;;;;23.88;7.53;;;3.50;99.90;;;;;;5061278;28;20454;-80
2024/01/27 09:14:00;;;;;;;26.52;8.05;;;3.70;99.90;;;;;;5071384;28;20681;-81
2024/01/27 09:16:26;;;;;;;27.20;9.57;;;4.00;99.90;;;;;;5064616;28;20101;-81
2024/01/27 09:18:52;;;;;;;24.85;8.50;;;3.60;99.90;;;;;;5071887;28;20044;-80
2024/01/27 09:21:20;;;;;;;26.52;8.55;;;3.60;99.90;;;;;;5071732;28;20056;-80
2024/01/27 09:23:47;;;;;;;22.42;8.52;;;3.70;99.90;;;;;;5073024;28;20068;-80
2024/01/27 09:26:13;;;;;;;22.70;7.88;;;3.70;99.90;;;;;;5071958;28;20045;-85
2024/01/27 09:28:43;;;;;;;17.83;7.85;;;3.80;99.90;;;;;;5052493;28;20540;-80
2024/01/27 09:31:12;;;;;;;21.92;7.28;;;4.00;99.90;;;;;;5052658;28;20037;-80
2024/01/27 09:33:38;;;;;;;23.63;8.10;;;3.80;99.90;;;;;;5052438;28;20463;-82
2024/01/27 09:36:04;;;;;;;21.08;7.72;;;3.90;99.90;;;;;;5056438;28;20120;-81
2024/01/27 09:38:30;;;;;;;34.35;9.25;;;3.90;99.90;;;;;;5068661;28;20049;-81
2024/01/27 09:40:55;;;;;;;19.67;8.05;;;4.00;99.90;;;;;;5071856;28;20048;-81
2024/01/27 09:43:21;;;;;;;29.13;9.02;;;4.50;99.90;;;;;;5071997;28;20103;-81
2024/01/27 09:45:47;;;;;;;24.27;7.95;;;4.00;99.90;;;;;;5070714;28;20086;-82
2024/01/27 09:48:14;;;;;;;18.95;6.93;;;4.70;99.90;;;;;;5067667;28;20044;-82
2024/01/27 09:50:41;;;;;;;16.13;6.40;;;4.10;99.90;;;;;;5073277;28;20198;-82
2024/01/27 09:53:08;;;;;;;23.85;7.10;;;4.10;99.90;;;;;;5071900;28;20466;-81
2024/01/27 09:55:35;;;;;;;21.27;7.80;;;4.20;99.90;;;;;;5070185;28;20074;-81
2024/01/27 09:58:01;;;;;;;22.10;7.88;;;4.20;99.90;;;;;;5061155;28;20040;-82
2024/01/27 10:00:27;;;;;;;21.63;7.72;;;4.20;99.90;;;;;;5067576;28;20382;-80
2024/01/27 10:02:55;;;;;;;27.10;8.68;;;4.30;99.90;;;;;;5072937;28;20117;-82
2024/01/27 10:05:21;;;;;;;22.33;8.45;;;4.30;99.90;;;;;;5067293;28;20674;-83
2024/01/27 10:07:47;;;;;;;22.90;7.25;;;4.40;99.90;;;;;;5062292;28;20090;-82
2024/01/27 10:10:12;;;;;;;18.05;7.22;;;4.50;99.90;;;;;;5058181;28;20037;-81
2024/01/27 10:12:44;;;;;;;22.35;6.82;;;4.60;99.90;;;;;;5068037;28;20039;-81
2024/01/27 10:15:23;;;;;;;22.55;7.03;;;4.70;99.90;;;;;;5066199;28;20059;-81
2024/01/27 10:17:49;;;;;;;21.75;6.95;;;4.80;99.90;;;;;;5071927;28;20082;-81
2024/01/27 10:20:15;;;;;;;22.67;7.88;;;4.80;99.90;;;;;;5055951;28;20796;-81
2024/01/27 10:22:43;;;;;;;25.88;7.47;;;5.60;99.90;;;;;;5052698;28;20057;-81
2024/01/27 10:25:11;;;;;;;25.48;7.47;;;5.70;99.90;;;;;;5067434;28;20152;-82
2024/01/27 10:27:38;;;;;;;21.23;6.57;;;5.00;99.90;;;;;;5053392;28;20037;-82
2024/01/27 10:30:04;;;;;;;19.60;6.60;;;5.10;99.90;;;;;;5056069;28;20052;-82
2024/01/27 10:32:30;;;;;;;22.00;6.68;;;5.20;99.90;;;;;;5067190;28;20127;-84
2024/01/27 10:35:09;;;;;;;24.40;7.25;;;5.30;99.90;;;;;;5075927;28;20131;-82
2024/01/27 10:37:36;;;;;;;24.08;6.68;;;5.40;99.90;;;;;;5074718;28;20442;-84
2024/01/27 10:40:09;;;;;;;24.08;7.32;;;5.50;99.90;;;;;;5074923;28;20174;-84
2024/01/27 10:42:36;;;;;;;21.48;6.88;;;5.60;99.90;;;;;;5058371;28;20106;-84
2024/01/27 10:45:03;;;;;;;16.92;6.38;;;5.70;99.90;;;;;;5060963;28;20076;-84
2024/01/27 10:47:31;;;;;;;25.75;7.07;;;5.70;99.90;;;;;;5065849;28;20059;-87
2024/01/27 10:49:59;;;;;;;23.63;7.15;;;5.80;99.90;;;;;;5059132;28;20048;-86
2024/01/27 10:52:30;;;;;;;26.13;7.25;;;6.70;99.90;;;;;;5071234;28;20044;-86
2024/01/27 10:55:00;;;;;;;21.88;7.18;;;6.40;99.90;;;;;;5092885;28;20094;-86
2024/01/27 10:57:27;;;;;;;18.88;5.88;;;6.10;99.90;;;;;;5090024;28;20079;-84
2024/01/27 10:59:57;;;;;;;21.90;6.25;;;6.60;99.90;;;;;;5082418;28;20044;-83
2024/01/27 11:02:23;;;;;;;21.08;6.00;;;6.30;99.90;;;;;;5073344;28;20048;-84
2024/01/27 11:04:51;;;;;;;22.60;6.32;;;6.30;99.90;;;;;;5068552;28;20123;-84
2024/01/27 11:07:21;;;;;;;16.80;5.05;;;6.40;99.90;;;;;;5066422;28;20052;-84
2024/01/27 11:09:50;;;;;;;18.55;5.45;;;6.50;99.90;;;;;;5064645;28;20522;-82
2024/01/27 11:12:17;;;;;;;21.25;5.88;;;6.60;99.90;;;;;;5063841;28;20049;-82
2024/01/27 11:14:43;;;;;;;19.58;4.90;;;6.70;99.90;;;;;;5067709;28;20489;-82
2024/01/27 11:17:08;;;;;;;19.35;5.60;;;7.20;99.90;;;;;;5073413;28;20053;-82
2024/01/27 11:19:35;;;;;;;22.30;4.93;;;6.80;99.90;;;;;;5073223;28;20047;-82
2024/01/27 11:22:04;;;;;;;18.17;5.00;;;6.90;99.90;;;;;;5089626;28;20055;-81
2024/01/27 11:24:30;;;;;;;22.52;5.05;;;7.00;99.90;;;;;;5093679;28;20686;-82
2024/01/27 11:27:06;;;;;;;16.60;5.10;;;7.10;99.90;;;;;;5091127;28;20045;-82
2024/01/27 11:29:32;;;;;;;20.60;5.65;;;7.90;99.90;;;;;;5072655;28;20056;-82
2024/01/27 11:32:02;;;;;;;26.50;5.75;;;7.20;99.90;;;;;;5065147;28;20075;-82
2024/01/27 11:34:28;;;;;;;23.85;5.72;;;7.20;99.90;;;;;;5064702;28;20120;-81
2024/01/27 11:36:54;;;;;;;15.93;5.50;;;7.30;99.90;;;;;;5074439;28;20052;-83
2024/01/27 11:39:27;;;;;;;18.73;5.10;;;7.40;99.90;;;;;;5070520;28;20036;-82
2024/01/27 11:41:53;;;;;;;15.38;6.35;;;7.40;99.90;;;;;;5064513;28;20041;-81
2024/01/27 11:44:20;;;;;;;17.35;4.90;;;7.40;99.90;;;;;;5071495;28;20052;-81
2024/01/27 11:46:46;;;;;;;18.70;4.90;;;7.50;99.90;;;;;;5056256;28;20482;-82
2024/01/27 11:49:17;;;;;;;15.52;4.40;;;7.90;99.90;;;;;;5071146;28;20036;-81
2024/01/27 11:51:43;;;;;;;17.23;5.55;;;7.50;99.90;;;;;;5068858;28;20169;-81
2024/01/27 11:54:09;;;;;;;20.13;4.45;;;7.60;99.90;;;;;;5066983;28;20139;-81
2024/01/27 11:56:35;;;;;;;17.02;5.60;;;7.60;99.90;;;;;;5063305;28;20530;-81
2024/01/27 11:59:00;;;;;;;19.58;5.07;;;7.70;99.90;;;;;;5074301;28;20048;-81
2024/01/27 12:01:26;;;;;;;20.45;5.70;;;7.80;99.90;;;;;;5055735;28;20046;-81
2024/01/27 12:03:52;;;;;;;20.83;5.40;;;7.80;99.90;;;;;;5057977;28;20047;-82
2024/01/27 12:06:18;;;;;;;15.57;5.00;;;7.70;99.90;;;;;;5067367;28;20134;-82
2024/01/27 12:08:46;;;;;;;17.10;4.70;;;7.90;99.90;;;;;;5062063;28;20467;-82
2024/01/27 12:11:13;;;;;;;17.52;4.40;;;8.00;99.90;;;;;;5071600;28;20055;-82
2024/01/27 12:13:39;;;;;;;21.17;6.05;;;8.10;99.90;;;;;;5072315;28;20079;-82
2024/01/27 12:16:05;;;;;;;22.17;4.95;;;8.20;99.90;;;;;;5070269;28;20082;-81
2024/01/27 12:18:31;;;;;;;25.33;5.68;;;8.20;99.90;;;;;;5071165;28;20090;-82
2024/01/27 12:20:57;;;;;;;19.70;5.10;;;8.30;99.90;;;;;;5066610;28;20457;-82
2024/01/27 12:23:23;;;;;;;16.95;4.93;;;8.30;99.90;;;;;;5076618;28;20084;-79
2024/01/27 12:25:55;;;;;;;24.05;5.35;;;8.40;99.90;;;;;;5073295;28;20072;-80
2024/01/27 12:28:23;;;;;;;18.60;4.82;;;8.40;99.90;;;;;;5071904;28;20056;-81
2024/01/27 12:30:53;;;;;;;20.83;5.25;;;8.60;99.90;;;;;;5062827;28;20049;-82
2024/01/27 12:33:22;;;;;;;18.40;5.38;;;8.40;99.90;;;;;;5055360;28;20122;-82
2024/01/27 12:35:49;;;;;;;18.15;4.80;;;8.40;99.90;;;;;;5065249;28;20063;-80
2024/01/27 12:38:14;;;;;;;16.75;4.63;;;8.50;99.90;;;;;;5071885;28;20063;-82
2024/01/27 12:40:41;;;;;;;23.80;4.63;;;8.50;99.90;;;;;;5073037;28;20037;-81
2024/01/27 12:43:06;;;;;;;20.70;4.80;;;8.50;99.90;;;;;;5072596;28;20134;-81